Auburn, New York
Current Conditions -  °F | °C
As of 4:34 AM on Monday 24 Nov 2014 (Local Time) from KSYR Reporting Station
Light Rain Light Rain  
Wind Chill: 50°   Ceiling: 2000
Heat Index: 50°   Visibility: 10mi
Dew Point: 48°   Wind: 13mph
Humidity: 93%   Direction: 80°E
Pressure: 29.48"   Gusts: NA
Location:  42.93°N, 76.56°W
Report Text: KSYR 240934Z 08011KT 10SM -RA BKN020 OVC027 10/09 A2948 RMK AO2 P0006 T01000089 $
Loading
Personal Weather Stations






























Interactive Weather Map New forecast layout! Learn more

10-Day Weather Forecast

Advertisements
Track Severe Weather on mobile